White Mountain Lake, Arizona
Current Conditions -  °F | °C
As of 7:35 AM on Saturday 22 Nov 2014 (Local Time) from KSOW Reporting Station
Clear Clear  
Wind Chill: 19°   Ceiling: Unl
Heat Index: 19°   Visibility: 10mi
Dew Point: 12°   Wind: 0mph
Humidity: 74%   Direction: NA
Pressure: 30.18"   Gusts: NA
Location:  34.26°N, 110.17°W
Report Text: KSOW 221435Z AUTO 00000KT 10SM CLR M07/M11 A3018 RMK AO2
Loading
Personal Weather Stations






























Interactive Weather Map New forecast layout! Learn more

10-Day Weather Forecast

Advertisements
Track Severe Weather on mobile